createdAt,value
2018-04-26T00:00:51.487Z,17.81
2018-04-26T00:03:22.515Z,17.81
2018-04-26T00:05:53.508Z,17.78
2018-04-26T00:08:24.483Z,17.72
2018-04-26T00:10:55.512Z,17.67
2018-04-26T00:13:26.580Z,17.61
2018-04-26T00:15:57.572Z,17.52
2018-04-26T00:18:28.561Z,17.41
2018-04-26T00:20:59.562Z,17.32
2018-04-26T00:23:30.574Z,17.29
2018-04-26T00:26:01.553Z,17.28
2018-04-26T00:28:32.598Z,17.23
2018-04-26T00:31:03.592Z,17.09
2018-04-26T00:33:34.600Z,16.89
2018-04-26T00:36:05.583Z,16.71
2018-04-26T00:38:36.626Z,16.66
2018-04-26T00:41:07.587Z,16.72
2018-04-26T00:43:38.658Z,16.73
2018-04-26T00:46:09.644Z,16.71
2018-04-26T00:48:40.630Z,16.75
2018-04-26T00:51:11.623Z,16.74
2018-04-26T00:53:42.627Z,16.76
2018-04-26T00:56:13.663Z,16.73
2018-04-26T00:58:44.672Z,16.70
2018-04-26T01:01:15.671Z,16.66
2018-04-26T01:03:46.686Z,16.65
2018-04-26T01:06:17.703Z,16.58
2018-04-26T01:08:48.738Z,16.44
2018-04-26T01:11:19.726Z,16.29
2018-04-26T01:13:50.946Z,16.15
2018-04-26T01:16:21.944Z,16.09
2018-04-26T01:18:52.910Z,16.15
2018-04-26T01:21:23.893Z,16.23
2018-04-26T01:23:54.951Z,16.34
2018-04-26T01:26:25.913Z,16.37
2018-04-26T01:28:56.928Z,16.30
2018-04-26T01:31:27.935Z,16.19
2018-04-26T01:33:58.919Z,16.03
2018-04-26T01:36:42.091Z,15.90
2018-04-26T01:39:13.092Z,15.80
2018-04-26T01:41:44.138Z,15.81
2018-04-26T01:44:15.161Z,15.84
2018-04-26T01:46:46.191Z,15.85
2018-04-26T01:49:17.234Z,15.91
2018-04-26T01:51:48.263Z,16.06
2018-04-26T01:54:19.277Z,16.24
2018-04-26T01:56:50.357Z,16.34
2018-04-26T01:59:21.362Z,16.44
2018-04-26T02:01:52.366Z,16.54
2018-04-26T02:04:23.330Z,16.60
2018-04-26T02:06:54.319Z,16.61
2018-04-26T02:09:25.286Z,16.61
2018-04-26T02:11:56.262Z,16.62
2018-04-26T02:14:27.249Z,16.67
2018-04-26T02:16:58.258Z,16.62
2018-04-26T02:19:29.302Z,16.66
2018-04-26T02:22:07.376Z,16.67
2018-04-26T02:24:38.355Z,16.55
2018-04-26T02:27:09.334Z,16.58
2018-04-26T02:29:40.327Z,16.47
2018-04-26T02:32:11.298Z,16.36
2018-04-26T02:34:42.274Z,16.34
2018-04-26T02:37:13.254Z,16.39
2018-04-26T02:39:44.290Z,16.45
2018-04-26T02:42:15.289Z,16.41
2018-04-26T02:44:46.270Z,16.36
2018-04-26T02:47:17.273Z,16.39
2018-04-26T02:49:48.253Z,16.34
2018-04-26T02:52:19.250Z,16.37
2018-04-26T02:54:50.235Z,16.43
2018-04-26T02:57:21.230Z,16.51
2018-04-26T02:59:52.217Z,16.56
2018-04-26T03:02:23.229Z,16.59
2018-04-26T03:04:54.210Z,16.55
2018-04-26T03:07:25.193Z,16.56
2018-04-26T03:09:56.172Z,16.40
2018-04-26T03:12:27.139Z,16.41
2018-04-26T03:14:58.160Z,16.41
2018-04-26T03:17:29.129Z,16.35
2018-04-26T03:20:00.169Z,16.30
2018-04-26T03:22:31.162Z,16.28
2018-04-26T03:25:02.297Z,16.27
2018-04-26T03:27:33.312Z,16.24
2018-04-26T03:30:04.352Z,16.15
2018-04-26T03:32:35.355Z,16.13
2018-04-26T03:35:06.364Z,16.21
2018-04-26T03:37:37.352Z,16.15
2018-04-26T03:40:08.376Z,16.06
2018-04-26T03:42:39.351Z,16.04
2018-04-26T03:45:10.367Z,16.06
2018-04-26T03:47:41.344Z,16.01
2018-04-26T03:50:12.310Z,16.04
2018-04-26T03:52:43.290Z,16.04
2018-04-26T03:55:14.299Z,16.07
2018-04-26T03:57:45.337Z,16.08
2018-04-26T04:00:28.550Z,16.05
2018-04-26T04:03:11.818Z,16.02
2018-04-26T04:08:51.040Z,15.84
2018-04-26T04:11:22.035Z,15.83
2018-04-26T04:13:53.123Z,15.86
2018-04-26T04:16:24.098Z,15.88
2018-04-26T04:18:55.092Z,15.83
2018-04-26T04:21:26.126Z,15.72
2018-04-26T04:23:57.113Z,15.73
2018-04-26T04:26:28.132Z,15.67
2018-04-26T04:28:59.198Z,15.63
2018-04-26T04:31:30.209Z,15.60
2018-04-26T04:34:01.208Z,15.63
2018-04-26T04:36:32.191Z,15.72
2018-04-26T04:39:03.251Z,15.71
2018-04-26T04:41:34.255Z,15.63
2018-04-26T04:44:05.222Z,15.57
2018-04-26T04:46:36.225Z,15.49
2018-04-26T04:49:07.201Z,15.57
2018-04-26T04:51:38.190Z,15.71
2018-04-26T04:54:09.199Z,15.67
2018-04-26T04:56:40.222Z,15.61
2018-04-26T04:59:11.252Z,15.52
2018-04-26T05:01:42.308Z,15.54
2018-04-26T05:04:13.330Z,15.49
2018-04-26T05:06:44.322Z,15.46
2018-04-26T05:09:15.313Z,15.40
2018-04-26T05:11:46.332Z,15.41
2018-04-26T05:14:17.331Z,15.49
2018-04-26T05:16:48.318Z,15.55
2018-04-26T05:19:19.282Z,15.35
2018-04-26T05:21:50.303Z,15.14
2018-04-26T05:24:21.302Z,15.09
2018-04-26T05:26:52.343Z,15.18
2018-04-26T05:29:23.365Z,15.31
2018-04-26T05:31:54.354Z,15.47
2018-04-26T05:34:25.350Z,15.60
2018-04-26T05:36:56.342Z,15.51
2018-04-26T05:39:27.319Z,15.64
2018-04-26T05:41:58.345Z,15.86
2018-04-26T05:44:29.362Z,16.05
2018-04-26T05:47:00.391Z,16.10
2018-04-26T05:49:31.404Z,16.00
2018-04-26T05:52:02.395Z,16.12
2018-04-26T05:54:33.357Z,16.01
2018-04-26T05:57:04.350Z,16.06
2018-04-26T05:59:35.358Z,16.24
2018-04-26T06:02:06.358Z,16.35
2018-04-26T06:04:37.379Z,16.55
2018-04-26T06:07:08.367Z,16.78
2018-04-26T06:09:39.377Z,17.25
2018-04-26T06:12:10.356Z,17.66
2018-04-26T06:14:41.333Z,17.76
2018-04-26T06:17:12.316Z,17.69
2018-04-26T06:19:43.296Z,17.54
2018-04-26T06:22:14.336Z,17.21
2018-04-26T06:24:45.320Z,16.89
2018-04-26T06:27:16.333Z,16.79
2018-04-26T06:29:47.291Z,16.74
2018-04-26T06:32:18.307Z,16.64
2018-04-26T06:34:49.280Z,16.64
2018-04-26T06:37:20.262Z,16.50
2018-04-26T06:39:51.258Z,16.64
2018-04-26T06:42:22.278Z,16.87
2018-04-26T06:44:53.242Z,17.03
2018-04-26T06:47:24.210Z,17.10
2018-04-26T06:50:02.492Z,17.11
2018-04-26T06:52:33.522Z,16.95
2018-04-26T06:55:04.568Z,16.94
2018-04-26T06:57:35.554Z,17.15
2018-04-26T07:00:06.592Z,17.39
2018-04-26T07:02:37.606Z,17.65
2018-04-26T07:05:08.598Z,17.97
2018-04-26T07:07:39.588Z,18.06
2018-04-26T07:10:10.606Z,17.97
2018-04-26T07:12:41.623Z,18.12
2018-04-26T07:15:12.591Z,18.47
2018-04-26T07:17:43.630Z,18.53
2018-04-26T07:20:14.602Z,18.86
2018-04-26T07:22:45.620Z,19.32
2018-04-26T07:25:16.610Z,21.78
2018-04-26T07:27:47.659Z,27.77
2018-04-26T07:30:18.635Z,30.56
2018-04-26T07:32:49.684Z,34.14
2018-04-26T07:35:20.726Z,34.58
2018-04-26T07:37:51.723Z,35.99
2018-04-26T07:40:22.768Z,34.31
2018-04-26T07:42:53.768Z,34.82
2018-04-26T07:45:24.773Z,34.35
2018-04-26T07:47:55.819Z,32.24
2018-04-26T07:50:26.856Z,31.14
2018-04-26T07:52:57.896Z,29.22
2018-04-26T07:55:28.914Z,27.17
2018-04-26T07:57:59.947Z,26.94
2018-04-26T08:00:30.983Z,26.42
2018-04-26T08:03:02.031Z,26.41
2018-04-26T08:05:32.983Z,27.12
2018-04-26T08:08:03.962Z,27.48
2018-04-26T08:10:35.010Z,26.34
2018-04-26T08:13:06.038Z,25.70
2018-04-26T08:15:37.022Z,25.27
2018-04-26T08:18:08.032Z,24.88
2018-04-26T08:20:39.003Z,25.32
2018-04-26T08:23:09.995Z,24.93
2018-04-26T08:25:40.946Z,26.19
2018-04-26T08:28:11.946Z,27.64
2018-04-26T08:30:42.927Z,28.13
2018-04-26T08:33:13.930Z,27.67
2018-04-26T08:35:44.939Z,29.28
2018-04-26T08:38:15.983Z,29.44
2018-04-26T08:40:47.025Z,29.02
2018-04-26T08:43:17.995Z,26.98
2018-04-26T08:45:49.029Z,25.83
2018-04-26T08:48:19.983Z,26.27
2018-04-26T08:50:51.051Z,27.07
2018-04-26T08:53:22.118Z,29.03
2018-04-26T08:55:53.179Z,29.87
2018-04-26T08:58:24.142Z,29.91
2018-04-26T09:00:55.151Z,29.85
2018-04-26T09:03:26.094Z,31.17
2018-04-26T09:05:57.097Z,32.01
2018-04-26T09:08:28.059Z,31.63
2018-04-26T09:10:59.105Z,30.95
2018-04-26T09:13:30.103Z,29.96
2018-04-26T09:16:01.151Z,31.40
2018-04-26T09:18:32.117Z,32.20
2018-04-26T09:21:03.168Z,32.08
2018-04-26T09:23:34.233Z,31.74
2018-04-26T09:26:05.275Z,29.50
2018-04-26T09:28:36.286Z,27.63
2018-04-26T09:31:07.331Z,27.07
2018-04-26T09:33:38.372Z,26.09
2018-04-26T09:36:09.383Z,25.61
2018-04-26T09:38:40.411Z,25.25
2018-04-26T09:41:11.432Z,24.70
2018-04-26T09:43:42.491Z,24.41
2018-04-26T09:46:13.468Z,24.20
2018-04-26T09:48:44.571Z,23.94
2018-04-26T09:51:15.558Z,23.96
2018-04-26T09:53:46.523Z,23.70
2018-04-26T09:56:17.592Z,23.74
2018-04-26T09:58:48.608Z,23.51
2018-04-26T10:01:19.726Z,23.27
2018-04-26T10:03:53.774Z,23.59
2018-04-26T10:06:31.696Z,23.66
2018-04-26T10:09:02.800Z,23.82
2018-04-26T10:11:33.861Z,23.99
2018-04-26T10:14:04.849Z,23.45
2018-04-26T10:16:35.884Z,23.06
2018-04-26T10:19:06.857Z,22.76
2018-04-26T10:21:37.850Z,22.24
2018-04-26T10:24:08.918Z,22.43
2018-04-26T10:26:39.937Z,22.51
2018-04-26T10:29:10.998Z,22.62
2018-04-26T10:31:41.963Z,22.92
2018-04-26T10:34:13.003Z,23.68
2018-04-26T10:36:43.983Z,24.09
2018-04-26T10:39:14.985Z,23.73
2018-04-26T10:41:46.040Z,23.41
2018-04-26T10:44:17.057Z,23.32
2018-04-26T10:46:48.049Z,23.13
2018-04-26T10:49:19.017Z,22.71
2018-04-26T10:51:49.992Z,23.07
2018-04-26T10:54:21.047Z,23.44
2018-04-26T10:56:52.105Z,25.76
2018-04-26T10:59:23.067Z,26.63
2018-04-26T11:01:54.082Z,26.75
2018-04-26T11:04:25.133Z,27.44
2018-04-26T11:06:56.137Z,27.63
2018-04-26T11:09:27.137Z,27.26
2018-04-26T11:11:58.154Z,26.89
2018-04-26T11:14:29.190Z,25.32
2018-04-26T11:17:00.165Z,23.89
2018-04-26T11:19:31.154Z,22.73
2018-04-26T11:22:02.306Z,22.09
2018-04-26T11:24:33.292Z,21.38
2018-04-26T11:27:04.348Z,20.96
2018-04-26T11:29:35.365Z,21.13
2018-04-26T11:32:06.376Z,21.77
2018-04-26T11:34:37.388Z,22.09
2018-04-26T11:37:08.357Z,21.88
2018-04-26T11:39:39.330Z,21.99
2018-04-26T11:42:10.336Z,22.19
2018-04-26T11:44:41.298Z,22.30
2018-04-26T11:47:12.337Z,22.10
2018-04-26T11:49:43.349Z,21.94
2018-04-26T11:52:14.323Z,21.96
2018-04-26T11:54:45.305Z,21.62
2018-04-26T11:57:16.362Z,21.55
2018-04-26T11:59:47.382Z,21.72
2018-04-26T12:02:18.465Z,22.12
2018-04-26T12:04:49.427Z,22.78
2018-04-26T12:07:20.423Z,23.65
2018-04-26T12:09:51.434Z,24.32
2018-04-26T12:12:22.475Z,24.63
2018-04-26T12:14:53.447Z,24.45
2018-04-26T12:17:24.457Z,24.45
2018-04-26T12:19:55.430Z,24.44
2018-04-26T12:22:26.402Z,24.05
2018-04-26T12:25:04.378Z,23.99
2018-04-26T12:27:35.448Z,24.22
2018-04-26T12:30:06.490Z,24.12
2018-04-26T12:32:37.468Z,24.43
2018-04-26T12:35:08.494Z,24.74
2018-04-26T12:37:39.512Z,25.00
2018-04-26T12:40:10.539Z,24.87
2018-04-26T12:42:41.553Z,25.14
2018-04-26T12:45:12.555Z,25.51
2018-04-26T12:47:43.568Z,25.67
2018-04-26T12:50:14.610Z,25.49
2018-04-26T12:52:45.575Z,26.01
2018-04-26T12:55:16.592Z,26.42
2018-04-26T12:57:47.550Z,26.05
2018-04-26T13:00:18.535Z,25.38
2018-04-26T13:02:49.605Z,25.07
2018-04-26T13:05:20.640Z,25.33
2018-04-26T13:07:51.749Z,25.81
2018-04-26T13:10:22.686Z,25.53
2018-04-26T13:12:53.716Z,24.97
2018-04-26T13:15:24.707Z,24.46
2018-04-26T13:17:55.682Z,24.01
2018-04-26T13:20:26.784Z,24.43
2018-04-26T13:22:57.795Z,24.45
2018-04-26T13:25:28.804Z,24.42
2018-04-26T13:27:59.811Z,24.76
2018-04-26T13:30:30.850Z,24.82
2018-04-26T13:33:01.892Z,24.58
2018-04-26T13:35:32.877Z,24.51
2018-04-26T13:38:03.881Z,24.34
2018-04-26T13:40:34.868Z,24.22
2018-04-26T13:43:05.899Z,23.60
2018-04-26T13:45:36.892Z,23.07
2018-04-26T13:48:07.927Z,23.12
2018-04-26T13:50:39.015Z,23.57
2018-04-26T13:53:10.042Z,24.41
2018-04-26T13:55:41.056Z,23.83
2018-04-26T13:58:12.074Z,23.78
2018-04-26T14:00:43.092Z,23.82
2018-04-26T14:03:14.075Z,23.87
2018-04-26T14:05:45.056Z,23.84
2018-04-26T14:08:16.085Z,23.97
2018-04-26T14:10:47.062Z,23.79
2018-04-26T14:13:18.054Z,24.32
2018-04-26T14:15:49.091Z,24.31
2018-04-26T14:18:20.121Z,24.02
2018-04-26T14:20:51.074Z,23.93
2018-04-26T14:23:22.151Z,23.08
2018-04-26T14:25:53.105Z,22.54
2018-04-26T14:28:24.121Z,22.40
2018-04-26T14:30:55.077Z,22.12
2018-04-26T14:33:26.087Z,22.35
2018-04-26T14:35:57.091Z,22.55
2018-04-26T14:38:28.054Z,22.49
2018-04-26T14:40:59.085Z,22.75
2018-04-26T14:43:30.200Z,23.46
2018-04-26T14:46:01.200Z,23.68
2018-04-26T14:48:32.153Z,23.36
2018-04-26T14:51:03.171Z,23.13
2018-04-26T14:53:34.174Z,22.78
2018-04-26T14:56:05.188Z,22.64
2018-04-26T14:58:36.151Z,22.77
2018-04-26T15:01:07.192Z,23.09
2018-04-26T15:03:38.192Z,23.33
2018-04-26T15:06:09.205Z,23.52
2018-04-26T15:08:40.214Z,23.55
2018-04-26T15:11:11.259Z,23.78
2018-04-26T15:13:42.264Z,23.82
2018-04-26T15:16:13.284Z,23.97
2018-04-26T15:18:44.390Z,23.61
2018-04-26T15:21:15.415Z,23.26
2018-04-26T15:23:46.458Z,23.19
2018-04-26T15:26:17.466Z,23.35
2018-04-26T15:28:48.459Z,23.12
2018-04-26T15:31:19.441Z,23.02
2018-04-26T15:33:50.391Z,22.64
2018-04-26T15:36:21.352Z,22.22
2018-04-26T15:38:52.372Z,21.87
2018-04-26T15:41:23.416Z,21.77
2018-04-26T15:43:54.420Z,21.84
2018-04-26T15:46:25.456Z,21.62
2018-04-26T15:48:56.461Z,21.34
2018-04-26T15:51:27.492Z,21.35
2018-04-26T15:54:10.791Z,21.39
2018-04-26T15:56:54.063Z,21.34
2018-04-26T15:59:37.250Z,21.21
2018-04-26T16:02:36.374Z,20.97
2018-04-26T16:05:25.894Z,20.67
2018-04-26T16:08:15.471Z,20.55
2018-04-26T16:11:04.790Z,20.48
2018-04-26T16:13:54.279Z,20.66
2018-04-26T16:16:43.875Z,20.71
2018-04-26T16:19:34.170Z,20.88
2018-04-26T16:22:23.458Z,20.95
2018-04-26T16:25:06.864Z,20.82
2018-04-26T16:27:50.100Z,20.88
2018-04-26T16:30:33.489Z,20.79
2018-04-26T16:33:16.812Z,20.48
2018-04-26T16:36:00.007Z,20.29
2018-04-26T16:38:43.417Z,20.01
2018-04-26T16:41:14.432Z,19.95
2018-04-26T16:43:45.420Z,19.99
2018-04-26T16:46:16.429Z,19.98
2018-04-26T16:48:47.410Z,19.80
2018-04-26T16:51:18.446Z,19.52
2018-04-26T16:53:49.423Z,19.42
2018-04-26T16:56:20.434Z,19.43
2018-04-26T16:58:51.441Z,19.21
2018-04-26T17:01:22.515Z,19.18
2018-04-26T17:03:53.529Z,18.98
2018-04-26T17:06:24.518Z,18.76
2018-04-26T17:08:55.525Z,18.64
2018-04-26T17:11:26.656Z,18.65
2018-04-26T17:13:57.593Z,18.59
2018-04-26T17:16:28.621Z,18.44
2018-04-26T17:18:59.652Z,18.40
2018-04-26T17:21:30.687Z,18.33
2018-04-26T17:24:01.726Z,18.16
2018-04-26T17:26:32.716Z,18.11
2018-04-26T17:29:03.795Z,18.04
2018-04-26T17:31:34.772Z,17.93
2018-04-26T17:34:05.855Z,17.80
2018-04-26T17:36:36.947Z,17.75
2018-04-26T17:39:07.924Z,17.64
2018-04-26T17:41:39.060Z,17.56
2018-04-26T17:44:10.058Z,17.48
2018-04-26T17:46:41.094Z,17.41
2018-04-26T17:49:12.120Z,17.27
2018-04-26T17:51:43.098Z,17.17
2018-04-26T17:54:14.123Z,17.10
2018-04-26T17:56:45.153Z,17.02
2018-04-26T17:59:16.150Z,16.93
2018-04-26T18:01:47.141Z,16.82
2018-04-26T18:04:18.856Z,16.76
2018-04-26T18:06:49.897Z,16.71
2018-04-26T18:09:20.890Z,16.64
2018-04-26T18:11:51.899Z,16.61
2018-04-26T18:14:22.950Z,16.57
2018-04-26T18:16:53.972Z,16.55
2018-04-26T18:19:25.029Z,16.53
2018-04-26T18:21:56.071Z,16.47
2018-04-26T18:24:27.057Z,16.48
2018-04-26T18:26:58.077Z,16.49
2018-04-26T18:29:29.134Z,16.55
2018-04-26T18:32:00.177Z,16.59
2018-04-26T18:34:31.179Z,16.59
2018-04-26T18:37:02.211Z,16.57
2018-04-26T18:39:33.260Z,16.51
2018-04-26T18:42:04.278Z,16.48
2018-04-26T18:44:35.278Z,16.47
2018-04-26T18:47:06.283Z,16.40
2018-04-26T18:49:37.288Z,16.30
2018-04-26T18:52:08.289Z,16.21
2018-04-26T18:54:39.287Z,16.15
2018-04-26T18:57:10.304Z,16.08
2018-04-26T18:59:41.325Z,16.03
2018-04-26T19:02:12.356Z,15.95
2018-04-26T19:04:43.322Z,15.82
2018-04-26T19:07:14.355Z,15.70
2018-04-26T19:09:45.352Z,15.62
2018-04-26T19:12:16.314Z,15.52
2018-04-26T19:14:47.308Z,15.41
2018-04-26T19:17:18.301Z,15.31
2018-04-26T19:19:49.294Z,15.19
2018-04-26T19:22:20.383Z,15.09
2018-04-26T19:24:51.428Z,15.04
2018-04-26T19:27:22.409Z,15.00
2018-04-26T19:29:53.444Z,14.94
2018-04-26T19:32:24.476Z,14.89
2018-04-26T19:34:55.499Z,14.84
2018-04-26T19:37:26.538Z,14.82
2018-04-26T19:39:57.566Z,14.80
2018-04-26T19:42:28.557Z,14.75
2018-04-26T19:44:59.603Z,14.70
2018-04-26T19:47:30.595Z,14.64
2018-04-26T19:50:01.670Z,14.58
2018-04-26T19:52:33.893Z,14.58
2018-04-26T19:55:04.893Z,14.58
2018-04-26T19:57:35.997Z,14.61
2018-04-26T20:00:06.991Z,14.61
2018-04-26T20:02:37.964Z,14.63
2018-04-26T20:05:08.973Z,14.65
2018-04-26T20:07:39.984Z,14.65
2018-04-26T20:10:10.981Z,14.65
2018-04-26T20:12:41.934Z,14.66
2018-04-26T20:15:12.920Z,14.70
2018-04-26T20:17:43.899Z,14.76
2018-04-26T20:20:14.914Z,14.79
2018-04-26T20:22:45.914Z,14.84
2018-04-26T20:25:16.932Z,14.89
2018-04-26T20:27:47.937Z,14.95
2018-04-26T20:30:18.983Z,15.02
2018-04-26T20:32:49.957Z,15.08
2018-04-26T20:35:21.016Z,15.15
2018-04-26T20:37:52.087Z,15.19
2018-04-26T20:40:23.119Z,15.23
2018-04-26T20:42:54.103Z,15.28
2018-04-26T20:45:25.084Z,15.31
2018-04-26T20:47:56.091Z,15.32
2018-04-26T20:50:27.134Z,15.33
2018-04-26T20:52:58.297Z,15.29
2018-04-26T20:55:29.273Z,15.29
2018-04-26T20:58:00.301Z,15.27
2018-04-26T21:00:31.348Z,15.24
2018-04-26T21:03:02.429Z,15.19
2018-04-26T21:05:33.473Z,15.12
2018-04-26T21:08:04.546Z,15.06
2018-04-26T21:10:35.601Z,14.98
2018-04-26T21:13:06.630Z,14.92
2018-04-26T21:15:37.696Z,14.86
2018-04-26T21:18:08.782Z,14.80
2018-04-26T21:20:39.794Z,14.78
2018-04-26T21:23:10.852Z,14.77
2018-04-26T21:25:41.899Z,14.74
2018-04-26T21:28:12.949Z,14.69
2018-04-26T21:30:43.944Z,14.66
2018-04-26T21:33:14.983Z,14.62
2018-04-26T21:35:46.074Z,14.61
2018-04-26T21:38:17.078Z,14.58
2018-04-26T21:40:48.152Z,14.59
2018-04-26T21:43:19.220Z,14.56
2018-04-26T21:45:50.315Z,14.57
2018-04-26T21:48:21.335Z,14.55
2018-04-26T21:50:58.384Z,14.55
2018-04-26T21:53:35.588Z,14.52
2018-04-26T21:56:12.906Z,14.50
2018-04-26T21:58:50.057Z,14.46
2018-04-26T22:01:27.207Z,14.42
2018-04-26T22:07:02.384Z,14.25
2018-04-26T22:09:33.399Z,14.22
2018-04-26T22:12:04.462Z,14.20
2018-04-26T22:14:35.503Z,14.13
2018-04-26T22:17:06.513Z,14.04
2018-04-26T22:19:37.529Z,13.99
2018-04-26T22:22:08.551Z,14.00
2018-04-26T22:24:39.568Z,13.98
2018-04-26T22:27:10.637Z,13.98
2018-04-26T22:29:41.677Z,13.99
2018-04-26T22:32:12.673Z,14.01
2018-04-26T22:34:43.723Z,14.04
2018-04-26T22:37:14.714Z,14.05
2018-04-26T22:39:45.824Z,14.05
2018-04-26T22:42:16.923Z,14.02
2018-04-26T22:44:48.005Z,13.95
2018-04-26T22:47:19.162Z,13.92
2018-04-26T22:49:50.143Z,13.92
2018-04-26T22:52:21.161Z,13.96
2018-04-26T22:54:52.206Z,13.99
2018-04-26T22:57:23.249Z,14.00
2018-04-26T22:59:54.297Z,14.01
2018-04-26T23:02:25.331Z,14.03
2018-04-26T23:04:56.424Z,14.03
2018-04-26T23:07:27.497Z,14.05
2018-04-26T23:09:58.555Z,14.04
2018-04-26T23:12:29.663Z,14.00
2018-04-26T23:15:00.727Z,13.99
2018-04-26T23:17:31.748Z,14.00
2018-04-26T23:20:02.875Z,13.95
2018-04-26T23:22:33.929Z,13.90
2018-04-26T23:25:04.964Z,13.87
2018-04-26T23:27:35.971Z,13.81
2018-04-26T23:30:07.034Z,13.76
2018-04-26T23:32:38.090Z,13.75
2018-04-26T23:35:09.126Z,13.79
2018-04-26T23:37:47.148Z,13.87
2018-04-26T23:40:18.159Z,13.91
2018-04-26T23:42:49.219Z,13.96
2018-04-26T23:45:20.250Z,13.98
2018-04-26T23:47:51.262Z,14.00
2018-04-26T23:50:22.323Z,14.03
2018-04-26T23:52:53.390Z,14.01
2018-04-26T23:55:24.415Z,13.97
2018-04-26T23:57:55.445Z,13.88
